메인 페이지
METAR-TAF:

METAR-TAF

공항 :

비라코푸스 캄피나스 국제공항

캄피나스, 상파울루, 브라질

위도: 23-00S, 경도: 047-08W, 고도: 661m

현재 날씨관측

예보는 37분 전, 23:00시(UTC)에 발표되었습니다.
동남동7kt
온도 24°C
습도 74%
기압 1019 hPa
시정 10km 이상
1500m 미만 상공 구름 및 적란운 없음

METAR: SBKP 192300Z 12007KT CAVOK 24/19 Q1019

시각: 20:37 (23:37 UTC)

예보

예보는 7 시간 7분 전, 16:30시(UTC)에 발표되었습니다.
예보 대상 시간: 19일 18시부터 20일 18시까지 (UTC)
서남서5kt
시정 10km 이상
1500m 미만 상공 구름 및 적란운 없음
전환 중
19일 21시부터 19일 23시까지 (UTC)
남동10kt
전환 중
20일 13시부터 20일 15시까지 (UTC)
서북서5kt

TAF: SBKP 191630Z 1918/2018 25005KT CAVOK TX30/1918Z TN18/2009Z BECMG 1921/1923 14010KT BECMG 2013/2015 30005KT RMK PGG

4,000개 이상의 공항 관측 자료 및 예보 (METAR 및 TAF 보고).

지도상에서 검색 가능한 기상관측소가 노란 점과 빨간 점으로 표시되어 있습니다.

기상관측소 명을 보려면 표시 위로 마우스를 이동하세요.

날씨 관측과 예보를 보려면 클릭하세요.

지도 변경 : 확대하려면 엑스 표시가 있는 녹색 버튼, 축소하려면 빼기 표시가 있는 녹색 버튼, 다음 페이지의 지도를 보려면 녹색 화살표를 클릭하세요.


METAR-TAF: